sensor_id;sensor_type;location;lat;lon;timestamp;P1;durP1;ratioP1;P2;durP2;ratioP2
43363;SDS011;40636;52.424;-1.948;2022-10-15T00:00:41;9.32;;;3.42;;
43363;SDS011;40636;52.424;-1.948;2022-10-15T00:03:08;9.48;;;3.75;;
43363;SDS011;40636;52.424;-1.948;2022-10-15T00:05:36;10.68;;;4.60;;
43363;SDS011;40636;52.424;-1.948;2022-10-15T00:08:04;8.13;;;4.05;;
43363;SDS011;40636;52.424;-1.948;2022-10-15T00:10:31;14.00;;;5.10;;
43363;SDS011;40636;52.424;-1.948;2022-10-15T00:12:59;10.05;;;4.60;;
43363;SDS011;40636;52.424;-1.948;2022-10-15T00:15:34;12.02;;;4.90;;
43363;SDS011;40636;52.424;-1.948;2022-10-15T00:18:02;20.35;;;7.50;;
43363;SDS011;40636;52.424;-1.948;2022-10-15T00:20:29;12.77;;;4.15;;
43363;SDS011;40636;52.424;-1.948;2022-10-15T00:22:59;10.30;;;4.53;;
43363;SDS011;40636;52.424;-1.948;2022-10-15T00:25:26;9.38;;;4.88;;
43363;SDS011;40636;52.424;-1.948;2022-10-15T00:27:53;8.48;;;4.18;;
43363;SDS011;40636;52.424;-1.948;2022-10-15T00:30:20;7.97;;;3.97;;
43363;SDS011;40636;52.424;-1.948;2022-10-15T00:32:47;9.65;;;3.80;;
43363;SDS011;40636;52.424;-1.948;2022-10-15T00:35:14;15.20;;;4.97;;
43363;SDS011;40636;52.424;-1.948;2022-10-15T00:37:41;7.43;;;4.18;;
43363;SDS011;40636;52.424;-1.948;2022-10-15T00:40:10;8.80;;;3.85;;
43363;SDS011;40636;52.424;-1.948;2022-10-15T00:42:40;6.97;;;3.60;;
43363;SDS011;40636;52.424;-1.948;2022-10-15T00:45:10;6.38;;;2.95;;
43363;SDS011;40636;52.424;-1.948;2022-10-15T00:47:39;10.77;;;3.55;;
43363;SDS011;40636;52.424;-1.948;2022-10-15T00:53:04;6.75;;;2.92;;
43363;SDS011;40636;52.424;-1.948;2022-10-15T00:55:35;9.60;;;3.40;;
43363;SDS011;40636;52.424;-1.948;2022-10-15T00:58:13;7.50;;;3.10;;
43363;SDS011;40636;52.424;-1.948;2022-10-15T01:00:42;10.48;;;3.63;;
43363;SDS011;40636;52.424;-1.948;2022-10-15T01:03:12;6.30;;;2.63;;
43363;SDS011;40636;52.424;-1.948;2022-10-15T01:05:39;6.63;;;3.00;;
43363;SDS011;40636;52.424;-1.948;2022-10-15T01:08:08;7.15;;;2.53;;
43363;SDS011;40636;52.424;-1.948;2022-10-15T01:10:43;10.77;;;3.13;;
43363;SDS011;40636;52.424;-1.948;2022-10-15T01:22:37;9.88;;;2.78;;
43363;SDS011;40636;52.424;-1.948;2022-10-15T01:27:51;6.25;;;2.85;;
43363;SDS011;40636;52.424;-1.948;2022-10-15T01:30:23;8.07;;;2.63;;
43363;SDS011;40636;52.424;-1.948;2022-10-15T01:33:02;4.72;;;2.50;;
43363;SDS011;40636;52.424;-1.948;2022-10-15T01:38:17;10.88;;;2.45;;
43363;SDS011;40636;52.424;-1.948;2022-10-15T01:46:26;10.32;;;3.05;;
43363;SDS011;40636;52.424;-1.948;2022-10-15T01:49:06;7.82;;;2.30;;
43363;SDS011;40636;52.424;-1.948;2022-10-15T01:51:36;9.80;;;2.15;;
43363;SDS011;40636;52.424;-1.948;2022-10-15T01:54:06;5.05;;;1.70;;
43363;SDS011;40636;52.424;-1.948;2022-10-15T01:56:36;7.63;;;2.00;;
43363;SDS011;40636;52.424;-1.948;2022-10-15T01:59:04;7.82;;;2.05;;
43363;SDS011;40636;52.424;-1.948;2022-10-15T02:01:33;7.72;;;1.92;;
43363;SDS011;40636;52.424;-1.948;2022-10-15T02:04:00;4.75;;;2.03;;
43363;SDS011;40636;52.424;-1.948;2022-10-15T02:06:32;4.75;;;1.90;;
43363;SDS011;40636;52.424;-1.948;2022-10-15T02:15:34;6.18;;;2.10;;
43363;SDS011;40636;52.424;-1.948;2022-10-15T02:21:11;9.63;;;2.20;;
43363;SDS011;40636;52.424;-1.948;2022-10-15T02:24:03;8.35;;;1.98;;
43363;SDS011;40636;52.424;-1.948;2022-10-15T02:26:36;6.18;;;2.47;;
43363;SDS011;40636;52.424;-1.948;2022-10-15T02:29:06;5.95;;;2.00;;
43363;SDS011;40636;52.424;-1.948;2022-10-15T02:31:36;6.78;;;2.22;;
43363;SDS011;40636;52.424;-1.948;2022-10-15T02:34:07;9.90;;;2.20;;
43363;SDS011;40636;52.424;-1.948;2022-10-15T02:36:39;2.80;;;1.77;;
43363;SDS011;40636;52.424;-1.948;2022-10-15T02:39:09;4.50;;;1.95;;
43363;SDS011;40636;52.424;-1.948;2022-10-15T02:41:38;6.07;;;2.25;;
43363;SDS011;40636;52.424;-1.948;2022-10-15T02:44:25;4.00;;;2.08;;
43363;SDS011;40636;52.424;-1.948;2022-10-15T02:46:52;5.93;;;1.88;;
43363;SDS011;40636;52.424;-1.948;2022-10-15T02:49:19;5.32;;;1.95;;
43363;SDS011;40636;52.424;-1.948;2022-10-15T02:51:46;3.08;;;2.25;;
43363;SDS011;40636;52.424;-1.948;2022-10-15T02:54:13;3.65;;;1.85;;
43363;SDS011;40636;52.424;-1.948;2022-10-15T02:56:40;3.05;;;1.65;;
43363;SDS011;40636;52.424;-1.948;2022-10-15T02:59:08;10.93;;;1.90;;
43363;SDS011;40636;52.424;-1.948;2022-10-15T03:01:35;6.63;;;2.20;;
43363;SDS011;40636;52.424;-1.948;2022-10-15T03:04:03;3.75;;;1.75;;
43363;SDS011;40636;52.424;-1.948;2022-10-15T03:06:30;4.43;;;1.85;;
43363;SDS011;40636;52.424;-1.948;2022-10-15T03:08:57;4.80;;;1.52;;
43363;SDS011;40636;52.424;-1.948;2022-10-15T03:11:24;3.33;;;1.63;;
43363;SDS011;40636;52.424;-1.948;2022-10-15T03:13:51;2.63;;;2.00;;
43363;SDS011;40636;52.424;-1.948;2022-10-15T03:16:19;3.65;;;1.70;;
43363;SDS011;40636;52.424;-1.948;2022-10-15T03:18:45;4.63;;;1.85;;
43363;SDS011;40636;52.424;-1.948;2022-10-15T03:21:13;4.32;;;2.33;;
43363;SDS011;40636;52.424;-1.948;2022-10-15T03:23:40;4.97;;;1.98;;
43363;SDS011;40636;52.424;-1.948;2022-10-15T03:26:07;3.67;;;1.60;;
43363;SDS011;40636;52.424;-1.948;2022-10-15T03:28:34;3.20;;;2.35;;
43363;SDS011;40636;52.424;-1.948;2022-10-15T03:31:01;3.85;;;1.90;;
43363;SDS011;40636;52.424;-1.948;2022-10-15T03:33:28;9.60;;;1.98;;
43363;SDS011;40636;52.424;-1.948;2022-10-15T03:35:55;4.07;;;2.17;;
43363;SDS011;40636;52.424;-1.948;2022-10-15T03:38:22;3.55;;;2.30;;
43363;SDS011;40636;52.424;-1.948;2022-10-15T03:40:49;4.10;;;2.53;;
43363;SDS011;40636;52.424;-1.948;2022-10-15T03:43:17;4.43;;;2.22;;
43363;SDS011;40636;52.424;-1.948;2022-10-15T03:45:43;8.18;;;2.35;;
43363;SDS011;40636;52.424;-1.948;2022-10-15T03:48:11;5.00;;;2.13;;
43363;SDS011;40636;52.424;-1.948;2022-10-15T03:50:38;5.78;;;2.63;;
43363;SDS011;40636;52.424;-1.948;2022-10-15T03:53:05;7.93;;;2.30;;
43363;SDS011;40636;52.424;-1.948;2022-10-15T03:55:31;4.22;;;2.28;;
43363;SDS011;40636;52.424;-1.948;2022-10-15T03:57:59;4.13;;;1.85;;
43363;SDS011;40636;52.424;-1.948;2022-10-15T04:00:25;3.90;;;2.35;;
43363;SDS011;40636;52.424;-1.948;2022-10-15T04:02:52;2.63;;;1.67;;
43363;SDS011;40636;52.424;-1.948;2022-10-15T04:05:19;3.20;;;2.08;;
43363;SDS011;40636;52.424;-1.948;2022-10-15T04:07:46;4.57;;;2.08;;
43363;SDS011;40636;52.424;-1.948;2022-10-15T04:10:12;3.35;;;1.98;;
43363;SDS011;40636;52.424;-1.948;2022-10-15T04:12:39;2.67;;;2.45;;
43363;SDS011;40636;52.424;-1.948;2022-10-15T04:15:06;5.72;;;2.25;;
43363;SDS011;40636;52.424;-1.948;2022-10-15T04:17:33;3.08;;;1.75;;
43363;SDS011;40636;52.424;-1.948;2022-10-15T04:19:59;5.50;;;2.13;;
43363;SDS011;40636;52.424;-1.948;2022-10-15T04:22:26;5.82;;;2.55;;
43363;SDS011;40636;52.424;-1.948;2022-10-15T04:24:53;3.33;;;1.77;;
43363;SDS011;40636;52.424;-1.948;2022-10-15T04:27:19;3.90;;;1.75;;
43363;SDS011;40636;52.424;-1.948;2022-10-15T04:29:46;4.03;;;1.80;;
43363;SDS011;40636;52.424;-1.948;2022-10-15T04:32:14;1.60;;;1.35;;
43363;SDS011;40636;52.424;-1.948;2022-10-15T04:34:41;6.78;;;1.98;;
43363;SDS011;40636;52.424;-1.948;2022-10-15T04:37:08;3.13;;;1.20;;
43363;SDS011;40636;52.424;-1.948;2022-10-15T04:39:35;1.42;;;1.02;;
43363;SDS011;40636;52.424;-1.948;2022-10-15T04:42:02;4.97;;;2.65;;
43363;SDS011;40636;52.424;-1.948;2022-10-15T04:44:28;3.42;;;1.52;;
43363;SDS011;40636;52.424;-1.948;2022-10-15T04:46:56;3.33;;;1.90;;
43363;SDS011;40636;52.424;-1.948;2022-10-15T04:49:23;4.68;;;2.30;;
43363;SDS011;40636;52.424;-1.948;2022-10-15T04:51:49;2.00;;;1.52;;
43363;SDS011;40636;52.424;-1.948;2022-10-15T04:54:16;5.25;;;1.55;;
43363;SDS011;40636;52.424;-1.948;2022-10-15T04:56:46;2.20;;;1.42;;
43363;SDS011;40636;52.424;-1.948;2022-10-15T04:59:13;2.45;;;1.60;;
43363;SDS011;40636;52.424;-1.948;2022-10-15T05:01:40;2.03;;;1.58;;
43363;SDS011;40636;52.424;-1.948;2022-10-15T05:04:09;2.30;;;1.50;;
43363;SDS011;40636;52.424;-1.948;2022-10-15T05:06:38;1.92;;;1.52;;
43363;SDS011;40636;52.424;-1.948;2022-10-15T05:09:06;4.03;;;1.92;;
43363;SDS011;40636;52.424;-1.948;2022-10-15T05:11:34;3.28;;;1.92;;
43363;SDS011;40636;52.424;-1.948;2022-10-15T05:14:02;5.18;;;1.65;;
43363;SDS011;40636;52.424;-1.948;2022-10-15T05:16:31;3.03;;;1.73;;
43363;SDS011;40636;52.424;-1.948;2022-10-15T05:19:02;2.15;;;1.63;;
43363;SDS011;40636;52.424;-1.948;2022-10-15T05:21:33;3.15;;;1.48;;
43363;SDS011;40636;52.424;-1.948;2022-10-15T05:24:00;1.80;;;1.45;;
43363;SDS011;40636;52.424;-1.948;2022-10-15T05:26:28;6.70;;;2.05;;
43363;SDS011;40636;52.424;-1.948;2022-10-15T05:28:55;3.90;;;1.52;;
43363;SDS011;40636;52.424;-1.948;2022-10-15T05:31:25;2.58;;;1.70;;
43363;SDS011;40636;52.424;-1.948;2022-10-15T05:33:54;2.00;;;1.52;;
43363;SDS011;40636;52.424;-1.948;2022-10-15T05:38:50;3.80;;;1.88;;
43363;SDS011;40636;52.424;-1.948;2022-10-15T05:41:22;2.10;;;1.90;;
43363;SDS011;40636;52.424;-1.948;2022-10-15T05:43:51;3.92;;;1.75;;
43363;SDS011;40636;52.424;-1.948;2022-10-15T05:46:20;2.05;;;1.80;;
43363;SDS011;40636;52.424;-1.948;2022-10-15T05:48:48;5.15;;;1.95;;
43363;SDS011;40636;52.424;-1.948;2022-10-15T05:51:17;2.45;;;1.60;;
43363;SDS011;40636;52.424;-1.948;2022-10-15T05:53:44;2.03;;;1.75;;
43363;SDS011;40636;52.424;-1.948;2022-10-15T05:56:14;1.75;;;1.45;;
43363;SDS011;40636;52.424;-1.948;2022-10-15T05:58:41;2.50;;;1.10;;
43363;SDS011;40636;52.424;-1.948;2022-10-15T06:01:09;1.80;;;1.40;;
43363;SDS011;40636;52.424;-1.948;2022-10-15T06:03:38;1.80;;;1.45;;
43363;SDS011;40636;52.424;-1.948;2022-10-15T06:06:12;4.40;;;1.40;;
43363;SDS011;40636;52.424;-1.948;2022-10-15T06:08:47;0.73;;;0.70;;
43363;SDS011;40636;52.424;-1.948;2022-10-15T06:11:15;2.38;;;1.23;;
43363;SDS011;40636;52.424;-1.948;2022-10-15T06:13:42;1.98;;;1.20;;
43363;SDS011;40636;52.424;-1.948;2022-10-15T06:16:11;1.77;;;0.95;;
43363;SDS011;40636;52.424;-1.948;2022-10-15T06:18:44;2.15;;;0.80;;
43363;SDS011;40636;52.424;-1.948;2022-10-15T06:21:11;1.90;;;1.10;;
43363;SDS011;40636;52.424;-1.948;2022-10-15T06:23:38;2.67;;;1.00;;
43363;SDS011;40636;52.424;-1.948;2022-10-15T06:26:08;1.33;;;0.98;;
43363;SDS011;40636;52.424;-1.948;2022-10-15T06:28:36;1.90;;;0.90;;
43363;SDS011;40636;52.424;-1.948;2022-10-15T06:31:04;1.50;;;0.80;;
43363;SDS011;40636;52.424;-1.948;2022-10-15T06:33:32;1.23;;;0.80;;
43363;SDS011;40636;52.424;-1.948;2022-10-15T06:36:06;1.00;;;0.60;;
43363;SDS011;40636;52.424;-1.948;2022-10-15T06:38:35;1.23;;;0.95;;
43363;SDS011;40636;52.424;-1.948;2022-10-15T06:41:05;1.85;;;1.00;;
43363;SDS011;40636;52.424;-1.948;2022-10-15T06:43:33;1.05;;;0.70;;
43363;SDS011;40636;52.424;-1.948;2022-10-15T06:46:01;3.10;;;1.35;;
43363;SDS011;40636;52.424;-1.948;2022-10-15T06:48:29;0.70;;;0.65;;
43363;SDS011;40636;52.424;-1.948;2022-10-15T06:50:56;2.22;;;0.70;;
43363;SDS011;40636;52.424;-1.948;2022-10-15T06:53:25;0.90;;;0.70;;
43363;SDS011;40636;52.424;-1.948;2022-10-15T06:56:00;0.95;;;0.52;;
43363;SDS011;40636;52.424;-1.948;2022-10-15T06:58:28;1.98;;;0.85;;
43363;SDS011;40636;52.424;-1.948;2022-10-15T07:01:03;2.85;;;0.70;;
43363;SDS011;40636;52.424;-1.948;2022-10-15T07:03:31;2.53;;;1.05;;
43363;SDS011;40636;52.424;-1.948;2022-10-15T07:06:02;1.52;;;0.57;;
43363;SDS011;40636;52.424;-1.948;2022-10-15T07:08:30;4.10;;;1.45;;
43363;SDS011;40636;52.424;-1.948;2022-10-15T07:10:59;1.52;;;0.70;;
43363;SDS011;40636;52.424;-1.948;2022-10-15T07:13:28;3.67;;;0.75;;
43363;SDS011;40636;52.424;-1.948;2022-10-15T07:15:55;2.97;;;0.77;;
43363;SDS011;40636;52.424;-1.948;2022-10-15T07:18:22;6.65;;;0.80;;
43363;SDS011;40636;52.424;-1.948;2022-10-15T07:20:48;3.70;;;0.68;;
43363;SDS011;40636;52.424;-1.948;2022-10-15T07:23:15;2.53;;;0.90;;
43363;SDS011;40636;52.424;-1.948;2022-10-15T07:25:42;2.47;;;1.27;;
43363;SDS011;40636;52.424;-1.948;2022-10-15T07:28:09;2.53;;;1.98;;
43363;SDS011;40636;52.424;-1.948;2022-10-15T07:30:35;2.15;;;0.50;;
43363;SDS011;40636;52.424;-1.948;2022-10-15T07:33:02;2.90;;;0.63;;
43363;SDS011;40636;52.424;-1.948;2022-10-15T07:35:29;0.65;;;0.57;;
43363;SDS011;40636;52.424;-1.948;2022-10-15T07:37:58;0.75;;;0.70;;
43363;SDS011;40636;52.424;-1.948;2022-10-15T07:40:26;1.42;;;0.52;;
43363;SDS011;40636;52.424;-1.948;2022-10-15T07:42:55;1.92;;;0.82;;
43363;SDS011;40636;52.424;-1.948;2022-10-15T07:45:23;2.38;;;0.80;;
43363;SDS011;40636;52.424;-1.948;2022-10-15T07:47:50;3.13;;;0.82;;
43363;SDS011;40636;52.424;-1.948;2022-10-15T07:50:18;5.60;;;0.80;;
43363;SDS011;40636;52.424;-1.948;2022-10-15T07:52:45;3.30;;;0.90;;
43363;SDS011;40636;52.424;-1.948;2022-10-15T07:55:12;3.97;;;0.85;;
43363;SDS011;40636;52.424;-1.948;2022-10-15T07:57:40;0.60;;;0.60;;
43363;SDS011;40636;52.424;-1.948;2022-10-15T08:00:07;0.65;;;0.55;;
43363;SDS011;40636;52.424;-1.948;2022-10-15T08:02:34;2.83;;;0.73;;
43363;SDS011;40636;52.424;-1.948;2022-10-15T08:05:01;1.15;;;0.70;;
43363;SDS011;40636;52.424;-1.948;2022-10-15T08:07:28;3.10;;;0.60;;
43363;SDS011;40636;52.424;-1.948;2022-10-15T08:09:54;1.17;;;0.80;;
43363;SDS011;40636;52.424;-1.948;2022-10-15T08:12:21;1.02;;;0.40;;
43363;SDS011;40636;52.424;-1.948;2022-10-15T08:14:48;7.97;;;4.43;;
43363;SDS011;40636;52.424;-1.948;2022-10-15T08:17:14;1.70;;;1.08;;
43363;SDS011;40636;52.424;-1.948;2022-10-15T08:19:43;1.20;;;0.55;;
43363;SDS011;40636;52.424;-1.948;2022-10-15T08:22:10;2.55;;;0.50;;
43363;SDS011;40636;52.424;-1.948;2022-10-15T08:24:38;1.15;;;0.65;;
43363;SDS011;40636;52.424;-1.948;2022-10-15T08:27:05;2.90;;;0.70;;
43363;SDS011;40636;52.424;-1.948;2022-10-15T08:29:32;1.42;;;0.75;;
43363;SDS011;40636;52.424;-1.948;2022-10-15T08:31:58;2.60;;;0.80;;
43363;SDS011;40636;52.424;-1.948;2022-10-15T08:34:25;2.20;;;1.02;;
43363;SDS011;40636;52.424;-1.948;2022-10-15T08:36:52;5.13;;;0.60;;
43363;SDS011;40636;52.424;-1.948;2022-10-15T08:39:19;8.52;;;1.08;;
43363;SDS011;40636;52.424;-1.948;2022-10-15T08:47:03;1.92;;;0.85;;
43363;SDS011;40636;52.424;-1.948;2022-10-15T08:52:18;0.93;;;0.60;;
43363;SDS011;40636;52.424;-1.948;2022-10-15T08:54:46;2.88;;;0.60;;
43363;SDS011;40636;52.424;-1.948;2022-10-15T08:59:57;1.13;;;0.70;;
43363;SDS011;40636;52.424;-1.948;2022-10-15T09:02:30;0.60;;;0.60;;
43363;SDS011;40636;52.424;-1.948;2022-10-15T09:08:12;2.85;;;0.70;;
43363;SDS011;40636;52.424;-1.948;2022-10-15T09:11:00;2.85;;;0.57;;
43363;SDS011;40636;52.424;-1.948;2022-10-15T09:13:34;1.30;;;0.50;;
43363;SDS011;40636;52.424;-1.948;2022-10-15T09:18:55;5.13;;;0.82;;
43363;SDS011;40636;52.424;-1.948;2022-10-15T09:21:26;3.20;;;0.75;;
43363;SDS011;40636;52.424;-1.948;2022-10-15T09:23:57;5.18;;;1.42;;
43363;SDS011;40636;52.424;-1.948;2022-10-15T09:26:48;1.38;;;0.65;;
43363;SDS011;40636;52.424;-1.948;2022-10-15T09:29:34;1.70;;;0.75;;
43363;SDS011;40636;52.424;-1.948;2022-10-15T09:37:52;3.72;;;1.38;;
43363;SDS011;40636;52.424;-1.948;2022-10-15T09:43:25;1.45;;;0.90;;
43363;SDS011;40636;52.424;-1.948;2022-10-15T09:46:01;2.40;;;0.90;;
43363;SDS011;40636;52.424;-1.948;2022-10-15T09:48:31;1.48;;;0.50;;
43363;SDS011;40636;52.424;-1.948;2022-10-15T09:56:34;3.50;;;0.77;;
43363;SDS011;40636;52.424;-1.948;2022-10-15T09:59:03;2.28;;;1.48;;
43363;SDS011;40636;52.424;-1.948;2022-10-15T10:01:35;3.38;;;0.90;;
43363;SDS011;40636;52.424;-1.948;2022-10-15T10:04:12;1.70;;;0.77;;
43363;SDS011;40636;52.424;-1.948;2022-10-15T10:07:24;5.28;;;0.90;;
43363;SDS011;40636;52.424;-1.948;2022-10-15T10:09:53;3.58;;;1.00;;
43363;SDS011;40636;52.424;-1.948;2022-10-15T10:12:23;3.83;;;0.68;;
43363;SDS011;40636;52.424;-1.948;2022-10-15T10:14:56;1.63;;;0.82;;
43363;SDS011;40636;52.424;-1.948;2022-10-15T10:17:25;2.10;;;0.60;;
43363;SDS011;40636;52.424;-1.948;2022-10-15T10:20:08;1.15;;;0.60;;
43363;SDS011;40636;52.424;-1.948;2022-10-15T10:22:50;1.35;;;0.73;;
43363;SDS011;40636;52.424;-1.948;2022-10-15T10:25:23;2.10;;;1.20;;
43363;SDS011;40636;52.424;-1.948;2022-10-15T10:27:57;5.07;;;1.17;;
43363;SDS011;40636;52.424;-1.948;2022-10-15T10:30:50;4.88;;;0.73;;
43363;SDS011;40636;52.424;-1.948;2022-10-15T10:33:26;4.45;;;1.02;;
43363;SDS011;40636;52.424;-1.948;2022-10-15T10:36:17;6.65;;;1.02;;
43363;SDS011;40636;52.424;-1.948;2022-10-15T10:38:54;3.20;;;0.90;;
43363;SDS011;40636;52.424;-1.948;2022-10-15T10:41:49;3.83;;;0.85;;
43363;SDS011;40636;52.424;-1.948;2022-10-15T10:49:32;4.25;;;1.25;;
43363;SDS011;40636;52.424;-1.948;2022-10-15T10:52:00;3.03;;;1.10;;
43363;SDS011;40636;52.424;-1.948;2022-10-15T10:54:27;3.45;;;1.00;;
43363;SDS011;40636;52.424;-1.948;2022-10-15T10:56:56;7.70;;;1.10;;
43363;SDS011;40636;52.424;-1.948;2022-10-15T10:59:35;7.85;;;0.80;;
43363;SDS011;40636;52.424;-1.948;2022-10-15T11:02:09;4.68;;;0.80;;
43363;SDS011;40636;52.424;-1.948;2022-10-15T11:04:38;4.93;;;0.75;;
43363;SDS011;40636;52.424;-1.948;2022-10-15T11:07:14;1.90;;;0.90;;
43363;SDS011;40636;52.424;-1.948;2022-10-15T11:09:51;5.30;;;0.93;;
43363;SDS011;40636;52.424;-1.948;2022-10-15T11:44:28;6.70;;;1.15;;
43363;SDS011;40636;52.424;-1.948;2022-10-15T11:55:20;2.30;;;1.30;;
43363;SDS011;40636;52.424;-1.948;2022-10-15T11:57:58;0.80;;;0.73;;
43363;SDS011;40636;52.424;-1.948;2022-10-15T12:03:23;2.25;;;0.73;;
43363;SDS011;40636;52.424;-1.948;2022-10-15T12:05:51;3.53;;;1.00;;
43363;SDS011;40636;52.424;-1.948;2022-10-15T12:08:22;4.18;;;1.00;;
43363;SDS011;40636;52.424;-1.948;2022-10-15T12:11:06;1.75;;;0.93;;
43363;SDS011;40636;52.424;-1.948;2022-10-15T12:19:35;5.50;;;0.80;;
43363;SDS011;40636;52.424;-1.948;2022-10-15T12:22:08;5.10;;;0.80;;
43363;SDS011;40636;52.424;-1.948;2022-10-15T12:27:31;3.25;;;1.77;;
43363;SDS011;40636;52.424;-1.948;2022-10-15T12:32:50;3.00;;;1.10;;
43363;SDS011;40636;52.424;-1.948;2022-10-15T12:37:50;7.53;;;2.10;;
43363;SDS011;40636;52.424;-1.948;2022-10-15T12:40:51;3.55;;;0.70;;
43363;SDS011;40636;52.424;-1.948;2022-10-15T12:43:12;13.80;;;1.30;;
43363;SDS011;40636;52.424;-1.948;2022-10-15T12:46:03;3.15;;;0.75;;
43363;SDS011;40636;52.424;-1.948;2022-10-15T12:48:33;1.50;;;0.60;;
43363;SDS011;40636;52.424;-1.948;2022-10-15T12:53:43;8.85;;;1.00;;
43363;SDS011;40636;52.424;-1.948;2022-10-15T12:58:44;3.90;;;0.70;;
43363;SDS011;40636;52.424;-1.948;2022-10-15T13:09:04;2.90;;;0.90;;
43363;SDS011;40636;52.424;-1.948;2022-10-15T13:11:50;6.47;;;1.27;;
43363;SDS011;40636;52.424;-1.948;2022-10-15T13:14:30;2.03;;;0.80;;
43363;SDS011;40636;52.424;-1.948;2022-10-15T13:17:15;1.67;;;0.80;;
43363;SDS011;40636;52.424;-1.948;2022-10-15T13:22:28;3.38;;;1.20;;
43363;SDS011;40636;52.424;-1.948;2022-10-15T13:24:56;4.25;;;0.90;;
43363;SDS011;40636;52.424;-1.948;2022-10-15T13:27:25;7.60;;;1.10;;
43363;SDS011;40636;52.424;-1.948;2022-10-15T13:32:37;6.68;;;1.35;;
43363;SDS011;40636;52.424;-1.948;2022-10-15T13:35:12;2.10;;;1.00;;
43363;SDS011;40636;52.424;-1.948;2022-10-15T13:37:44;3.25;;;0.95;;
43363;SDS011;40636;52.424;-1.948;2022-10-15T13:42:56;4.00;;;0.93;;
43363;SDS011;40636;52.424;-1.948;2022-10-15T13:45:31;3.42;;;1.05;;
43363;SDS011;40636;52.424;-1.948;2022-10-15T13:47:59;5.38;;;1.55;;
43363;SDS011;40636;52.424;-1.948;2022-10-15T13:50:26;6.65;;;1.00;;
43363;SDS011;40636;52.424;-1.948;2022-10-15T13:53:12;4.15;;;0.90;;
43363;SDS011;40636;52.424;-1.948;2022-10-15T13:55:50;4.95;;;1.10;;
43363;SDS011;40636;52.424;-1.948;2022-10-15T13:58:21;6.03;;;1.48;;
43363;SDS011;40636;52.424;-1.948;2022-10-15T14:00:59;4.70;;;1.25;;
43363;SDS011;40636;52.424;-1.948;2022-10-15T14:03:30;1.75;;;1.08;;
43363;SDS011;40636;52.424;-1.948;2022-10-15T14:06:07;6.72;;;1.60;;
43363;SDS011;40636;52.424;-1.948;2022-10-15T14:08:46;2.72;;;1.00;;
43363;SDS011;40636;52.424;-1.948;2022-10-15T14:11:14;5.68;;;1.90;;
43363;SDS011;40636;52.424;-1.948;2022-10-15T14:13:45;5.45;;;1.20;;
43363;SDS011;40636;52.424;-1.948;2022-10-15T14:19:05;7.70;;;1.60;;
43363;SDS011;40636;52.424;-1.948;2022-10-15T14:21:35;8.35;;;1.75;;
43363;SDS011;40636;52.424;-1.948;2022-10-15T14:24:11;6.03;;;2.70;;
43363;SDS011;40636;52.424;-1.948;2022-10-15T14:26:42;4.97;;;1.38;;
43363;SDS011;40636;52.424;-1.948;2022-10-15T14:29:17;4.68;;;1.25;;
43363;SDS011;40636;52.424;-1.948;2022-10-15T14:31:45;6.63;;;1.55;;
43363;SDS011;40636;52.424;-1.948;2022-10-15T14:42:38;7.63;;;1.20;;
43363;SDS011;40636;52.424;-1.948;2022-10-15T14:45:17;4.85;;;1.38;;
43363;SDS011;40636;52.424;-1.948;2022-10-15T14:47:47;2.50;;;1.15;;
43363;SDS011;40636;52.424;-1.948;2022-10-15T14:50:29;3.05;;;0.85;;
43363;SDS011;40636;52.424;-1.948;2022-10-15T14:52:58;5.15;;;1.23;;
43363;SDS011;40636;52.424;-1.948;2022-10-15T14:55:28;1.73;;;1.10;;
43363;SDS011;40636;52.424;-1.948;2022-10-15T14:58:07;9.98;;;1.35;;
43363;SDS011;40636;52.424;-1.948;2022-10-15T15:00:41;7.18;;;1.10;;
43363;SDS011;40636;52.424;-1.948;2022-10-15T15:03:10;4.70;;;1.50;;
43363;SDS011;40636;52.424;-1.948;2022-10-15T15:08:12;7.03;;;1.33;;
43363;SDS011;40636;52.424;-1.948;2022-10-15T15:10:41;8.50;;;1.88;;
43363;SDS011;40636;52.424;-1.948;2022-10-15T15:13:25;5.75;;;2.38;;
43363;SDS011;40636;52.424;-1.948;2022-10-15T15:15:54;5.78;;;1.15;;
43363;SDS011;40636;52.424;-1.948;2022-10-15T15:18:20;4.47;;;1.08;;
43363;SDS011;40636;52.424;-1.948;2022-10-15T15:20:48;7.70;;;2.20;;
43363;SDS011;40636;52.424;-1.948;2022-10-15T15:23:19;2.55;;;1.02;;
43363;SDS011;40636;52.424;-1.948;2022-10-15T15:25:48;7.15;;;1.45;;
43363;SDS011;40636;52.424;-1.948;2022-10-15T15:28:18;5.35;;;1.55;;
43363;SDS011;40636;52.424;-1.948;2022-10-15T15:30:50;6.28;;;1.48;;
43363;SDS011;40636;52.424;-1.948;2022-10-15T15:33:24;5.35;;;1.23;;
43363;SDS011;40636;52.424;-1.948;2022-10-15T15:38:32;3.13;;;1.10;;
43363;SDS011;40636;52.424;-1.948;2022-10-15T15:41:14;4.78;;;1.55;;
43363;SDS011;40636;52.424;-1.948;2022-10-15T15:43:42;6.00;;;2.28;;
43363;SDS011;40636;52.424;-1.948;2022-10-15T15:46:10;6.20;;;1.52;;
43363;SDS011;40636;52.424;-1.948;2022-10-15T15:48:37;8.50;;;1.67;;
43363;SDS011;40636;52.424;-1.948;2022-10-15T15:51:06;8.90;;;2.45;;
43363;SDS011;40636;52.424;-1.948;2022-10-15T15:53:42;4.35;;;1.60;;
43363;SDS011;40636;52.424;-1.948;2022-10-15T15:56:09;11.38;;;2.25;;
43363;SDS011;40636;52.424;-1.948;2022-10-15T15:58:36;10.73;;;2.65;;
43363;SDS011;40636;52.424;-1.948;2022-10-15T16:01:03;6.20;;;1.42;;
43363;SDS011;40636;52.424;-1.948;2022-10-15T16:03:29;7.55;;;2.63;;
43363;SDS011;40636;52.424;-1.948;2022-10-15T16:05:56;7.80;;;1.85;;
43363;SDS011;40636;52.424;-1.948;2022-10-15T16:08:23;10.13;;;3.20;;
43363;SDS011;40636;52.424;-1.948;2022-10-15T16:10:49;3.47;;;1.67;;
43363;SDS011;40636;52.424;-1.948;2022-10-15T16:13:16;4.45;;;1.77;;
43363;SDS011;40636;52.424;-1.948;2022-10-15T16:15:43;9.80;;;2.10;;
43363;SDS011;40636;52.424;-1.948;2022-10-15T16:18:09;7.85;;;2.00;;
43363;SDS011;40636;52.424;-1.948;2022-10-15T16:20:37;8.35;;;1.65;;
43363;SDS011;40636;52.424;-1.948;2022-10-15T16:23:13;3.90;;;1.42;;
43363;SDS011;40636;52.424;-1.948;2022-10-15T16:25:40;10.52;;;2.40;;
43363;SDS011;40636;52.424;-1.948;2022-10-15T16:28:08;10.65;;;2.60;;
43363;SDS011;40636;52.424;-1.948;2022-10-15T16:30:35;5.22;;;1.58;;
43363;SDS011;40636;52.424;-1.948;2022-10-15T16:33:01;6.40;;;1.48;;
43363;SDS011;40636;52.424;-1.948;2022-10-15T16:35:28;5.25;;;4.15;;
43363;SDS011;40636;52.424;-1.948;2022-10-15T16:37:55;6.53;;;1.52;;
43363;SDS011;40636;52.424;-1.948;2022-10-15T16:40:22;10.82;;;2.42;;
43363;SDS011;40636;52.424;-1.948;2022-10-15T16:42:48;10.85;;;1.85;;
43363;SDS011;40636;52.424;-1.948;2022-10-15T16:45:15;11.30;;;1.95;;
43363;SDS011;40636;52.424;-1.948;2022-10-15T16:47:42;7.22;;;1.98;;
43363;SDS011;40636;52.424;-1.948;2022-10-15T16:50:10;4.05;;;2.03;;
43363;SDS011;40636;52.424;-1.948;2022-10-15T16:52:37;6.38;;;1.80;;
43363;SDS011;40636;52.424;-1.948;2022-10-15T16:55:04;4.65;;;1.48;;
43363;SDS011;40636;52.424;-1.948;2022-10-15T16:57:32;4.53;;;1.30;;
43363;SDS011;40636;52.424;-1.948;2022-10-15T16:59:59;2.10;;;1.40;;
43363;SDS011;40636;52.424;-1.948;2022-10-15T17:02:26;7.13;;;2.00;;
43363;SDS011;40636;52.424;-1.948;2022-10-15T17:04:53;9.07;;;1.73;;
43363;SDS011;40636;52.424;-1.948;2022-10-15T17:07:20;2.95;;;1.35;;
43363;SDS011;40636;52.424;-1.948;2022-10-15T17:09:46;9.75;;;2.00;;
43363;SDS011;40636;52.424;-1.948;2022-10-15T17:12:18;6.43;;;1.77;;
43363;SDS011;40636;52.424;-1.948;2022-10-15T17:14:49;6.25;;;1.50;;
43363;SDS011;40636;52.424;-1.948;2022-10-15T17:17:17;6.80;;;1.83;;
43363;SDS011;40636;52.424;-1.948;2022-10-15T17:19:44;7.70;;;2.35;;
43363;SDS011;40636;52.424;-1.948;2022-10-15T17:22:11;5.55;;;1.38;;
43363;SDS011;40636;52.424;-1.948;2022-10-15T17:24:38;11.38;;;2.47;;
43363;SDS011;40636;52.424;-1.948;2022-10-15T17:27:04;7.35;;;1.52;;
43363;SDS011;40636;52.424;-1.948;2022-10-15T17:29:31;8.40;;;1.60;;
43363;SDS011;40636;52.424;-1.948;2022-10-15T17:31:59;12.60;;;2.70;;
43363;SDS011;40636;52.424;-1.948;2022-10-15T17:34:27;8.60;;;2.55;;
43363;SDS011;40636;52.424;-1.948;2022-10-15T17:36:53;8.82;;;2.53;;